Time;durP1;ratioP1;P1;durP2;ratioP2;P2;SDS_P1;SDS_P2;PMS_P1;PMS_P2;Temp;Humidity;BMP_temperature;BMP_pressure;BME280_temperature;BME280_humidity;BME280_pressure;Samples;Min_cycle;Max_cycle;Signal;HPM_P1;HPM_P2
2022/04/23 00:00:16;;;;;;;;;;;;;;;9.95;60.82;96831.34;4942348;29;19926;-55
2022/04/23 00:02:44;;;;;;;;;;;;;;;9.79;61.27;96823.00;4939391;29;19934;-55
2022/04/23 00:05:12;;;;;;;;;;;;;;;9.77;61.40;96822.56;4935547;28;20292;-55
2022/04/23 00:07:42;;;;;;;;;;;;;;;9.69;61.79;96820.69;4942345;29;19931;-55
2022/04/23 00:10:10;;;;;;;;;;;;;;;9.74;61.57;96819.72;4938317;28;20296;-55
2022/04/23 00:12:38;;;;;;;;;;;;;;;9.70;61.63;96817.69;4941201;29;20375;-55
2022/04/23 00:15:09;;;;;;;;;;;;;;;9.69;61.85;96813.38;4940788;29;19950;-55
2022/04/23 00:17:37;;;;;;;;;;;;;;;9.62;62.02;96823.97;4933328;29;19926;-55
2022/04/23 00:20:06;;;;;;;;;;;;;;;9.60;61.90;96817.28;4944157;29;19931;-56
2022/04/23 00:22:40;;;;;;;;;;;;;;;9.55;62.07;96817.50;4948330;29;20367;-55
2022/04/23 00:25:10;;;;;;;;;;;;;;;9.44;62.23;96822.50;4945406;29;20395;-55
2022/04/23 00:27:38;;;;;;;;;;;;;;;9.46;62.35;96814.84;4947253;29;19927;-56
2022/04/23 00:30:09;;;;;;;;;;;;;;;9.48;62.46;96814.50;4937574;28;20335;-56
2022/04/23 00:32:38;;;;;;;;;;;;;;;9.45;62.37;96818.69;4965246;28;20012;-55
2022/04/23 00:35:06;;;;;;;;;;;;;;;9.48;62.74;96817.22;4966463;28;19973;-56
2022/04/23 00:37:34;;;;;;;;;;;;;;;9.31;63.01;96812.72;4962116;28;19926;-55
2022/04/23 00:40:06;;;;;;;;;;;;;;;9.40;62.71;96818.88;4967751;28;20048;-55
2022/04/23 00:42:43;;;;;;;;;;;;;;;9.35;62.83;96813.63;4957417;28;19933;-54
2022/04/23 00:45:11;;;;;;;;;;;;;;;9.27;63.05;96820.72;4968175;28;20037;-55
2022/04/23 00:47:39;;;;;;;;;;;;;;;9.34;62.89;96812.84;4961082;28;19997;-55
2022/04/23 00:50:07;;;;;;;;;;;;;;;9.24;63.14;96812.44;4963274;28;20016;-55
2022/04/23 00:52:35;;;;;;;;;;;;;;;9.31;62.57;96813.50;4963080;28;19948;-55
2022/04/23 00:55:03;;;;;;;;;;;;;;;9.28;62.75;96808.75;4966776;28;20342;-56
2022/04/23 00:57:31;;;;;;;;;;;;;;;9.22;62.93;96804.66;4963520;28;19991;-54
2022/04/23 01:00:00;;;;;;;;;;;;;;;9.26;62.91;96805.56;4965364;28;20322;-54
2022/04/23 01:05:23;;;;;;;;;;;;;;;9.20;63.08;96806.88;4951063;28;20264;-54
2022/04/23 01:07:52;;;;;;;;;;;;;;;9.06;63.37;96812.56;4950285;28;20379;-54
2022/04/23 01:10:20;;;;;;;;;;;;;;;8.96;63.82;96818.34;4960415;28;20025;-54
2022/04/23 01:12:48;;;;;;;;;;;;;;;8.93;64.02;96819.78;4955003;28;19927;-55
2022/04/23 01:15:17;;;;;;;;;;;;;;;9.06;63.58;96812.56;4956255;28;19981;-54
2022/04/23 01:17:47;;;;;;;;;;;;;;;8.97;63.45;96824.56;4962312;28;19934;-55
2022/04/23 01:20:16;;;;;;;;;;;;;;;9.01;63.69;96809.25;4953716;28;19981;-54
2022/04/23 01:22:44;;;;;;;;;;;;;;;9.07;63.27;96816.06;4947479;28;19927;-55
2022/04/23 01:25:37;;;;;;;;;;;;;;;8.99;63.53;96814.97;4958000;28;19938;-55
2022/04/23 01:28:05;;;;;;;;;;;;;;;9.02;63.35;96810.84;4947641;28;20140;-54
2022/04/23 01:30:33;;;;;;;;;;;;;;;9.05;63.25;96807.44;4961050;28;20028;-55
2022/04/23 01:33:01;;;;;;;;;;;;;;;9.12;63.23;96805.81;4949647;28;19926;-54
2022/04/23 01:35:31;;;;;;;;;;;;;;;9.16;63.08;96806.75;4956388;28;19934;-54
2022/04/23 01:37:59;;;;;;;;;;;;;;;9.19;63.07;96808.00;4955682;28;19933;-54
2022/04/23 01:40:26;;;;;;;;;;;;;;;9.20;62.91;96809.59;4967355;28;20029;-54
2022/04/23 01:42:54;;;;;;;;;;;;;;;9.13;62.89;96812.03;4966575;28;20021;-56
2022/04/23 01:45:22;;;;;;;;;;;;;;;9.06;62.87;96812.56;4965000;28;20029;-55
2022/04/23 01:47:50;;;;;;;;;;;;;;;9.10;62.84;96808.06;4962325;28;20332;-54
2022/04/23 01:50:18;;;;;;;;;;;;;;;9.01;63.30;96820.09;4966833;28;20021;-54
2022/04/23 01:52:47;;;;;;;;;;;;;;;8.97;63.48;96824.56;4963117;28;19938;-54
2022/04/23 01:55:15;;;;;;;;;;;;;;;8.92;63.16;96823.63;4967378;28;19930;-55
2022/04/23 01:57:43;;;;;;;;;;;;;;;8.90;63.20;96831.28;4960558;28;20215;-54
2022/04/23 02:00:13;;;;;;;;;;;;;;;8.83;63.73;96822.06;4952324;28;19927;-54
2022/04/23 02:02:44;;;;;;;;;;;;;;;8.77;63.71;96828.78;4964022;28;19931;-54
2022/04/23 02:05:13;;;;;;;;;;;;;;;8.69;63.92;96825.03;4963712;28;19960;-55
2022/04/23 02:07:41;;;;;;;;;;;;;;;8.83;64.02;96816.66;4964549;28;19970;-55
2022/04/23 02:10:11;;;;;;;;;;;;;;;8.78;63.69;96823.03;4959846;28;20001;-55
2022/04/23 02:12:39;;;;;;;;;;;;;;;8.73;64.12;96822.44;4965694;28;20315;-54
2022/04/23 02:15:14;;;;;;;;;;;;;;;8.43;64.98;96822.41;4958954;28;19934;-55
2022/04/23 02:17:49;;;;;;;;;;;;;;;8.62;64.25;96835.53;4955213;28;19933;-56
2022/04/23 02:20:19;;;;;;;;;;;;;;;8.62;64.17;96830.13;4962404;28;19926;-54
2022/04/23 02:22:47;;;;;;;;;;;;;;;8.62;64.50;96824.72;4960557;28;20497;-54
2022/04/23 02:25:17;;;;;;;;;;;;;;;8.62;64.13;96828.22;4965801;28;19938;-55
2022/04/23 02:27:45;;;;;;;;;;;;;;;8.54;64.36;96822.84;4965209;28;19988;-54
2022/04/23 02:30:14;;;;;;;;;;;;;;;8.47;64.79;96836.06;4968254;28;19977;-54
2022/04/23 02:32:41;;;;;;;;;;;;;;;8.46;65.10;96831.78;4968709;28;20164;-54
2022/04/23 02:35:11;;;;;;;;;;;;;;;8.47;64.85;96831.47;4965482;28;19941;-54
2022/04/23 02:37:38;;;;;;;;;;;;;;;8.55;64.41;96835.25;4970444;28;20097;-54
2022/04/23 02:40:08;;;;;;;;;;;;;;;8.51;64.88;96828.91;4957515;28;20012;-55
2022/04/23 02:42:37;;;;;;;;;;;;;;;8.48;64.71;96830.34;4969236;28;20026;-54
2022/04/23 02:45:06;;;;;;;;;;;;;;;8.54;64.59;96839.09;4959450;28;19981;-55
2022/04/23 02:47:42;;;;;;;;;;;;;;;8.44;64.71;96828.63;4969273;28;19989;-55
2022/04/23 02:50:10;;;;;;;;;;;;;;;8.59;64.89;96830.78;4966169;28;20017;-55
2022/04/23 02:52:38;;;;;;;;;;;;;;;8.41;65.01;96830.03;4960733;28;20001;-56
2022/04/23 02:55:07;;;;;;;;;;;;;;;8.33;64.93;96828.94;4967460;28;19933;-55
2022/04/23 02:57:35;;;;;;;;;;;;;;;8.42;64.91;96838.97;4969405;28;20016;-56
2022/04/23 03:00:05;;;;;;;;;;;;;;;8.35;64.65;96832.09;4967445;28;19969;-57
2022/04/23 03:02:36;;;;;;;;;;;;;;;8.34;65.39;96829.72;4969154;28;20366;-56
2022/04/23 03:05:30;;;;;;;;;;;;;;;8.32;64.98;96827.34;4961404;28;19932;-56
2022/04/23 03:08:02;;;;;;;;;;;;;;;8.44;64.67;96834.03;4965941;28;19934;-57
2022/04/23 03:10:30;;;;;;;;;;;;;;;8.31;64.97;96833.88;4968023;28;19930;-58
2022/04/23 03:12:58;;;;;;;;;;;;;;;8.29;64.69;96824.47;4962356;28;19934;-56
2022/04/23 03:15:28;;;;;;;;;;;;;;;8.24;64.99;96825.44;4965845;28;19957;-56
2022/04/23 03:18:03;;;;;;;;;;;;;;;8.18;65.20;96836.75;4961583;28;19926;-56
2022/04/23 03:20:31;;;;;;;;;;;;;;;8.13;65.61;96826.91;4957493;28;19934;-57
2022/04/23 03:22:59;;;;;;;;;;;;;;;8.21;65.14;96831.53;4963525;28;19926;-56
2022/04/23 03:25:26;;;;;;;;;;;;;;;8.26;65.09;96834.06;4960578;28;19957;-56
2022/04/23 03:27:55;;;;;;;;;;;;;;;8.13;65.16;96835.81;4967768;28;19926;-56
2022/04/23 03:30:23;;;;;;;;;;;;;;;8.04;65.61;96828.81;4959155;28;20031;-56
2022/04/23 03:32:56;;;;;;;;;;;;;;;8.17;65.62;96833.28;4966281;28;20407;-55
2022/04/23 03:35:26;;;;;;;;;;;;;;;8.12;65.76;96828.03;4957765;28;19930;-56
2022/04/23 03:37:55;;;;;;;;;;;;;;;8.18;65.02;96832.16;4948584;28;19942;-56
2022/04/23 03:40:24;;;;;;;;;;;;;;;8.18;65.43;96821.31;4954637;28;20020;-55
2022/04/23 03:42:52;;;;;;;;;;;;;;;8.01;65.66;96815.97;4960832;28;19934;-58
2022/04/23 03:45:21;;;;;;;;;;;;;;;8.06;65.38;96815.78;4969198;28;19930;-55
2022/04/23 03:47:51;;;;;;;;;;;;;;;8.05;65.34;96819.63;4949521;28;20087;-58
2022/04/23 03:50:21;;;;;;;;;;;;;;;8.02;65.58;96821.03;4964318;28;19985;-55
2022/04/23 03:52:49;;;;;;;;;;;;;;;8.11;65.46;96821.03;4954517;28;20004;-55
2022/04/23 03:55:18;;;;;;;;;;;;;;;8.06;65.74;96823.91;4962456;28;20031;-56
2022/04/23 03:57:46;;;;;;;;;;;;;;;8.08;65.36;96821.66;4957367;28;19931;-58
2022/04/23 04:00:15;;;;;;;;;;;;;;;8.02;65.46;96823.75;4961863;28;20388;-56
2022/04/23 04:02:45;;;;;;;;;;;;;;;8.12;65.33;96822.63;4967662;28;20179;-55
2022/04/23 04:05:13;;;;;;;;;;;;;;;8.01;65.70;96822.16;4958046;28;19930;-56
2022/04/23 04:07:44;;;;;;;;;;;;;;;8.13;65.05;96824.19;4962009;28;20022;-55
2022/04/23 04:10:12;;;;;;;;;;;;;;;8.08;65.70;96821.66;4964590;28;19926;-53
2022/04/23 04:12:41;;;;;;;;;;;;;;;7.96;66.16;96824.25;4965534;28;19981;-56
2022/04/23 04:15:10;;;;;;;;;;;;;;;7.99;65.94;96816.28;4954496;28;19934;-56
2022/04/23 04:20:32;;;;;;;;;;;;;;;7.95;66.22;96815.34;4966454;28;19953;-56
2022/04/23 04:23:01;;;;;;;;;;;;;;;7.87;66.18;96819.63;4965204;28;19971;-58
2022/04/23 04:25:29;;;;;;;;;;;;;;;7.91;65.93;96821.69;4960798;28;19930;-57
2022/04/23 04:27:59;;;;;;;;;;;;;;;7.99;65.74;96807.34;4966162;28;20037;-56
2022/04/23 04:30:27;;;;;;;;;;;;;;;8.14;65.33;96815.75;4966322;28;19929;-56
2022/04/23 04:32:55;;;;;;;;;;;;;;;8.03;65.45;96809.09;4947424;28;19927;-55
2022/04/23 04:35:23;;;;;;;;;;;;;;;8.16;65.26;96804.63;4941362;28;19930;-58
2022/04/23 04:38:15;;;;;;;;;;;;;;;8.09;65.51;96807.00;4946518;28;19930;-56
2022/04/23 04:40:44;;;;;;;;;;;;;;;8.01;65.87;96811.34;4942430;28;19939;-56
2022/04/23 04:43:12;;;;;;;;;;;;;;;8.09;65.47;96813.22;4946789;28;20242;-56
2022/04/23 04:45:40;;;;;;;;;;;;;;;8.05;65.94;96817.72;4944176;28;19926;-56
2022/04/23 04:48:08;;;;;;;;;;;;;;;8.17;65.48;96811.63;4947748;28;20050;-56
2022/04/23 04:50:36;;;;;;;;;;;;;;;8.17;65.12;96819.75;4944312;28;20404;-56
2022/04/23 04:53:03;;;;;;;;;;;;;;;8.32;65.27;96821.13;4942625;28;19930;-57
2022/04/23 04:55:33;;;;;;;;;;;;;;;8.34;64.74;96827.00;4944652;28;19930;-56
2022/04/23 04:58:03;;;;;;;;;;;;;;;8.31;64.99;96824.94;4947013;29;19927;-57
2022/04/23 05:00:31;;;;;;;;;;;;;;;8.30;65.27;96831.47;4943501;28;19926;-56
2022/04/23 05:02:59;;;;;;;;;;;;;;;8.45;64.45;96833.69;4945415;28;19982;-57
2022/04/23 05:05:27;;;;;;;;;;;;;;;8.52;64.38;96833.19;4945264;29;19930;-55
2022/04/23 05:07:55;;;;;;;;;;;;;;;8.48;64.70;96826.84;4946617;29;19930;-56
2022/04/23 05:10:22;;;;;;;;;;;;;;;8.57;64.91;96828.38;4945516;29;20005;-58
2022/04/23 05:12:50;;;;;;;;;;;;;;;8.46;64.96;96826.38;4942707;29;19934;-56
2022/04/23 05:15:22;;;;;;;;;;;;;;;8.57;64.52;96827.59;4943557;28;19997;-56
2022/04/23 05:17:50;;;;;;;;;;;;;;;8.58;64.72;96823.78;4932901;29;19941;-56
2022/04/23 05:20:18;;;;;;;;;;;;;;;8.72;64.14;96827.06;4942759;29;19957;-56
2022/04/23 05:22:46;;;;;;;;;;;;;;;8.85;63.61;96827.97;4933911;29;19927;-57
2022/04/23 05:25:14;;;;;;;;;;;;;;;9.09;63.37;96827.34;4942644;29;19989;-56
2022/04/23 05:27:42;;;;;;;;;;;;;;;9.12;63.30;96827.50;4941974;29;20005;-56
2022/04/23 05:30:11;;;;;;;;;;;;;;;9.28;62.56;96825.00;4946484;28;19934;-56
2022/04/23 05:32:40;;;;;;;;;;;;;;;9.39;62.51;96826.22;4962293;28;19933;-56
2022/04/23 05:35:11;;;;;;;;;;;;;;;9.51;62.48;96833.63;4968614;28;19926;-56
2022/04/23 05:37:39;;;;;;;;;;;;;;;9.64;61.97;96829.03;4965171;28;20643;-56
2022/04/23 05:40:08;;;;;;;;;;;;;;;9.79;61.74;96833.88;4968262;28;19984;-56
2022/04/23 05:42:35;;;;;;;;;;;;;;;9.85;61.57;96824.41;4968410;28;19985;-57
2022/04/23 05:45:04;;;;;;;;;;;;;;;10.06;60.86;96826.28;4967753;28;19926;-56
2022/04/23 05:47:31;;;;;;;;;;;;;;;10.15;60.62;96832.44;4966095;28;19926;-57
2022/04/23 05:50:00;;;;;;;;;;;;;;;10.21;60.20;96831.88;4968962;28;19930;-56
2022/04/23 05:52:28;;;;;;;;;;;;;;;10.11;60.64;96831.50;4964032;28;19942;-54
2022/04/23 05:54:56;;;;;;;;;;;;;;;10.21;60.62;96829.16;4964455;28;19930;-54
2022/04/23 05:57:24;;;;;;;;;;;;;;;10.25;60.36;96829.31;4964808;28;19930;-55
2022/04/23 05:59:52;;;;;;;;;;;;;;;10.39;60.19;96835.25;4967397;28;20310;-54
2022/04/23 06:02:20;;;;;;;;;;;;;;;10.34;60.42;96827.31;4965583;28;19957;-54
2022/04/23 06:04:49;;;;;;;;;;;;;;;10.42;60.08;96831.84;4966464;28;19929;-54
2022/04/23 06:07:19;;;;;;;;;;;;;;;10.52;59.85;96827.13;4968364;28;19934;-54
2022/04/23 06:09:47;;;;;;;;;;;;;;;10.52;59.60;96830.63;4968121;28;19933;-54
2022/04/23 06:12:14;;;;;;;;;;;;;;;10.52;59.81;96833.34;4964141;28;20008;-55
2022/04/23 06:14:43;;;;;;;;;;;;;;;10.64;59.62;96838.78;4964663;28;20224;-54
2022/04/23 06:17:12;;;;;;;;;;;;;;;10.73;59.27;96838.69;4966913;28;19974;-54
2022/04/23 06:19:40;;;;;;;;;;;;;;;10.83;59.16;96835.53;4967063;28;19958;-54
2022/04/23 06:22:33;;;;;;;;;;;;;;;11.04;58.58;96827.28;4966981;28;19967;-54
2022/04/23 06:25:09;;;;;;;;;;;;;;;11.23;58.42;96829.41;4966634;28;20366;-54
2022/04/23 06:27:37;;;;;;;;;;;;;;;11.33;58.04;96828.94;4966748;28;19966;-56
2022/04/23 06:30:11;;;;;;;;;;;;;;;11.42;57.67;96834.25;4957469;28;20005;-55
2022/04/23 06:32:39;;;;;;;;;;;;;;;11.35;57.81;96831.34;4963901;28;20006;-55
2022/04/23 06:35:07;;;;;;;;;;;;;;;11.52;57.52;96831.84;4958052;28;20068;-54
2022/04/23 06:37:37;;;;;;;;;;;;;;;11.59;57.45;96835.91;4960124;28;19954;-55
2022/04/23 06:40:06;;;;;;;;;;;;;;;11.73;56.93;96831.69;4963881;28;19927;-54
2022/04/23 06:42:35;;;;;;;;;;;;;;;11.79;56.91;96824.88;4966522;28;19926;-53
2022/04/23 06:45:04;;;;;;;;;;;;;;;12.02;56.44;96818.91;4948909;28;19927;-57
2022/04/23 06:47:32;;;;;;;;;;;;;;;12.29;55.85;96825.47;4961202;28;20314;-53
2022/04/23 06:49:59;;;;;;;;;;;;;;;12.09;56.94;96821.03;4949669;28;20358;-59
2022/04/23 06:52:27;;;;;;;;;;;;;;;12.30;56.45;96816.16;4962598;28;19937;-57
2022/04/23 06:54:55;;;;;;;;;;;;;;;12.14;56.37;96816.13;4961106;28;19926;-60
2022/04/23 06:57:24;;;;;;;;;;;;;;;12.78;54.54;96819.72;4968053;28;19984;-58
2022/04/23 06:59:53;;;;;;;;;;;;;;;13.08;53.77;96818.13;4957314;28;19933;-58
2022/04/23 07:02:21;;;;;;;;;;;;;;;13.12;52.45;96826.38;4965388;28;20366;-57
2022/04/23 07:04:49;;;;;;;;;;;;;;;12.99;51.81;96819.44;4965856;28;20008;-58
2022/04/23 07:07:18;;;;;;;;;;;;;;;12.85;52.21;96819.91;4949448;28;19941;-57
2022/04/23 07:09:45;;;;;;;;;;;;;;;12.89;51.69;96817.25;4965147;28;19926;-58
2022/04/23 07:12:14;;;;;;;;;;;;;;;13.30;51.04;96824.88;4966012;28;20004;-56
2022/04/23 07:14:43;;;;;;;;;;;;;;;13.28;50.79;96821.72;4957201;28;19933;-56
2022/04/23 07:17:13;;;;;;;;;;;;;;;13.30;50.42;96821.38;4961612;28;20290;-56
2022/04/23 07:19:41;;;;;;;;;;;;;;;13.08;51.19;96815.38;4964159;28;19926;-59
2022/04/23 07:22:09;;;;;;;;;;;;;;;12.91;51.69;96828.59;4964873;28;21038;-61
2022/04/23 07:25:07;;;;;;;;;;;;;;;12.69;51.77;96827.28;4962004;28;20014;-58
2022/04/23 07:27:35;;;;;;;;;;;;;;;12.90;51.85;96825.09;4965340;28;20347;-56
2022/04/23 07:30:28;;;;;;;;;;;;;;;12.84;51.63;96826.50;4960750;28;20321;-57
2022/04/23 07:32:58;;;;;;;;;;;;;;;12.70;52.79;96835.09;4947381;28;19938;-59
2022/04/23 07:38:12;;;;;;;;;;;;;;;12.91;52.82;96834.84;4944844;28;20442;-60
2022/04/23 07:40:41;;;;;;;;;;;;;;;12.85;53.23;96837.03;4945787;28;19934;-59
2022/04/23 07:43:12;;;;;;;;;;;;;;;12.78;53.30;96836.06;4941370;28;20005;-62
2022/04/23 07:45:40;;;;;;;;;;;;;;;12.90;52.83;96841.44;4945601;28;19930;-60
2022/04/23 07:48:10;;;;;;;;;;;;;;;12.71;53.45;96844.06;4937250;28;19966;-58
2022/04/23 07:50:38;;;;;;;;;;;;;;;12.50;53.84;96838.88;4943652;28;19957;-60
2022/04/23 07:53:07;;;;;;;;;;;;;;;12.79;53.20;96829.50;4944132;28;20037;-60
2022/04/23 08:02:23;;;;;;;;;;;;;;;12.62;53.22;96833.31;4974835;28;19972;-77
2022/04/23 08:04:53;;;;;;;;;;;;;;;12.54;53.79;96826.91;4960838;28;19926;-74
2022/04/23 08:07:21;;;;;;;;;;;;;;;12.56;53.97;96830.06;4969261;28;19950;-74
2022/04/23 08:09:49;;;;;;;;;;;;;;;12.41;53.99;96830.88;4945898;28;19926;-76
2022/04/23 08:12:17;;;;;;;;;;;;;;;12.61;53.74;96826.31;4984224;28;19926;-79
2022/04/23 08:14:45;;;;;;;;;;;;;;;13.01;52.89;96823.41;4985096;28;19926;-79
2022/04/23 08:17:13;;;;;;;;;;;;;;;13.08;52.70;96823.56;4995637;28;19926;-79
2022/04/23 08:19:41;;;;;;;;;;;;;;;13.21;51.70;96828.91;4985186;28;20368;-79
2022/04/23 08:22:34;;;;;;;;;;;;;;;13.03;52.08;96821.09;4986513;28;19926;-80
2022/04/23 08:25:29;;;;;;;;;;;;;;;12.85;52.84;96826.16;4983834;28;20004;-79
2022/04/23 08:30:34;;;;;;;;;;;;;;;12.85;53.71;96820.69;4976043;28;19989;-78
2022/04/23 08:30:47;;;;;;;;;;;;;;;12.65;54.36;96829.13;4996482;28;19937;-83
2022/04/23 08:33:15;;;;;;;;;;;;;;;12.49;54.66;96824.44;4998737;28;19926;-79
2022/04/23 08:35:43;;;;;;;;;;;;;;;12.56;54.73;96824.63;5013145;28;19942;-84
2022/04/23 08:38:11;;;;;;;;;;;;;;;12.50;54.68;96826.03;4998468;28;19917;-83
2022/04/23 08:40:43;;;;;;;;;;;;;;;12.56;54.94;96826.56;4971984;23;21032;-59
2022/04/23 08:43:11;;;;;;;;;;;;;;;12.68;54.80;96826.50;4947491;28;19934;-57
2022/04/23 08:45:39;;;;;;;;;;;;;;;12.68;54.41;96825.72;4939488;29;19942;-57
2022/04/23 08:48:08;;;;;;;;;;;;;;;12.65;54.68;96820.94;4933095;29;19931;-59
2022/04/23 08:50:37;;;;;;;;;;;;;;;12.34;54.75;96819.78;4943275;28;20098;-59
2022/04/23 08:53:06;;;;;;;;;;;;;;;11.98;55.85;96832.41;4943725;29;19930;-59
2022/04/23 08:55:33;;;;;;;;;;;;;;;11.92;56.44;96822.91;4941902;29;19966;-59
2022/04/23 08:58:02;;;;;;;;;;;;;;;11.86;56.00;96818.06;4948231;29;19950;-58
2022/04/23 09:00:30;;;;;;;;;;;;;;;11.86;56.01;96824.31;4948758;29;20357;-56
2022/04/23 09:02:58;;;;;;;;;;;;;;;11.78;56.45;96823.28;4929425;29;19997;-57
2022/04/23 09:05:27;;;;;;;;;;;;;;;11.77;56.29;96826.34;4945570;29;19926;-57
2022/04/23 09:07:56;;;;;;;;;;;;;;;12.09;56.21;96815.59;4943622;29;19933;-58
2022/04/23 09:10:31;;;;;;;;;;;;;;;12.39;54.35;96816.00;4950031;29;19926;-57
2022/04/23 09:13:00;;;;;;;;;;;;;;;12.61;54.34;96823.56;4943355;29;20042;-58
2022/04/23 09:27:26;;;;;;;;;;;;;;;12.83;52.89;96816.72;4943190;29;19942;-58
2022/04/23 09:30:00;;;;;;;;;;;;;;;12.88;52.89;96821.13;4950409;29;20026;-58
2022/04/23 09:32:29;;;;;;;;;;;;;;;13.05;52.59;96829.75;4943958;29;20403;-58
2022/04/23 09:35:04;;;;;;;;;;;;;;;13.06;52.75;96825.88;4945772;29;20195;-58
2022/04/23 09:38:11;;;;;;;;;;;;;;;13.18;51.93;96824.19;4947350;29;20367;-57
2022/04/23 09:40:21;;;;;;;;;;;;;;;13.29;52.06;96817.06;4953969;28;19926;-58
2022/04/23 09:42:56;;;;;;;;;;;;;;;13.26;51.95;96823.22;4964082;28;19985;-55
2022/04/23 09:45:26;;;;;;;;;;;;;;;12.98;52.09;96823.31;4969194;28;19946;-57
2022/04/23 09:47:55;;;;;;;;;;;;;;;13.08;51.87;96823.56;4961040;28;19930;-57
2022/04/23 09:50:36;;;;;;;;;;;;;;;12.93;51.78;96821.66;4967684;28;19960;-57
2022/04/23 09:53:08;;;;;;;;;;;;;;;13.04;51.89;96833.59;4959624;28;19933;-56
2022/04/23 09:55:36;;;;;;;;;;;;;;;12.75;52.54;96825.88;4938935;29;20013;-57
2022/04/23 09:58:04;;;;;;;;;;;;;;;12.70;52.65;96832.38;4959729;28;20001;-56
2022/04/23 10:00:35;;;;;;;;;;;;;;;12.43;52.77;96828.56;4934701;28;19966;-57
2022/04/23 10:03:08;;;;;;;;;;;;;;;12.37;53.41;96832.69;4960291;28;19926;-56
2022/04/23 10:05:37;;;;;;;;;;;;;;;12.39;53.31;96830.41;4963797;28;20389;-58
2022/04/23 10:08:09;;;;;;;;;;;;;;;12.63;52.64;96842.31;4957677;28;20117;-57
2022/04/23 10:10:38;;;;;;;;;;;;;;;12.58;52.61;96835.19;4962180;28;19957;-58
2022/04/23 10:13:08;;;;;;;;;;;;;;;12.67;52.77;96835.78;4963429;28;19965;-57
2022/04/23 10:15:37;;;;;;;;;;;;;;;12.54;53.18;96837.81;4963341;28;19927;-55
2022/04/23 10:18:07;;;;;;;;;;;;;;;12.66;52.62;96827.97;4959793;28;20080;-57
2022/04/23 10:20:37;;;;;;;;;;;;;;;12.88;52.18;96821.91;4956823;28;19932;-56
2022/04/23 10:23:10;;;;;;;;;;;;;;;13.08;51.82;96822.78;4960575;28;19926;-57
2022/04/23 10:25:41;;;;;;;;;;;;;;;13.43;50.81;96827.50;4962121;28;19946;-56
2022/04/23 10:28:42;;;;;;;;;;;;;;;13.69;50.33;96821.41;4959655;28;20267;-57
2022/04/23 10:31:15;;;;;;;;;;;;;;;13.65;50.16;96828.75;4966439;28;20029;-56
2022/04/23 10:33:46;;;;;;;;;;;;;;;13.44;50.80;96827.16;4965910;28;20347;-57
2022/04/23 10:36:38;;;;;;;;;;;;;;;13.52;50.39;96825.34;4958768;28;20350;-57
2022/04/23 10:39:30;;;;;;;;;;;;;;;13.73;50.46;96820.34;4964015;28;20004;-57
2022/04/23 10:41:59;;;;;;;;;;;;;;;14.13;49.01;96828.19;4963415;28;20241;-57
2022/04/23 10:44:28;;;;;;;;;;;;;;;14.08;48.42;96824.97;4957322;28;20084;-56
2022/04/23 10:46:56;;;;;;;;;;;;;;;14.07;48.08;96815.97;4968404;28;19997;-57
2022/04/23 10:49:26;;;;;;;;;;;;;;;14.07;48.98;96815.19;4967651;28;20002;-57
2022/04/23 10:51:54;;;;;;;;;;;;;;;14.16;48.56;96813.00;4965670;28;19932;-57
2022/04/23 10:54:43;;;;;;;;;;;;;;;14.09;48.70;96805.47;4963960;28;19996;-55
2022/04/23 10:57:13;;;;;;;;;;;;;;;14.30;47.57;96807.03;4962910;28;19926;-56
2022/04/23 10:59:42;;;;;;;;;;;;;;;14.58;47.20;96802.09;4967183;28;19985;-57
2022/04/23 11:02:13;;;;;;;;;;;;;;;14.52;46.83;96798.09;4950476;28;19929;-57
2022/04/23 11:13:26;;;;;;;;;;;;;;;14.60;46.63;96804.50;4962376;28;20006;-57
2022/04/23 11:16:11;;;;;;;;;;;;;;;14.33;47.00;96798.91;4962189;28;19937;-57
2022/04/23 11:18:40;;;;;;;;;;;;;;;14.45;47.33;96797.94;4958425;28;19933;-57
2022/04/23 11:21:11;;;;;;;;;;;;;;;14.65;47.06;96801.47;4963019;28;20331;-56
2022/04/23 11:26:40;;;;;;;;;;;;;;;14.52;47.43;96803.56;4965251;28;19988;-57
2022/04/23 11:29:08;;;;;;;;;;;;;;;14.61;47.42;96792.41;4964796;28;20029;-58
2022/04/23 11:31:37;;;;;;;;;;;;;;;14.44;46.88;96799.13;4961427;28;19969;-57
2022/04/23 11:34:05;;;;;;;;;;;;;;;14.24;47.44;96795.63;4962781;28;19926;-58
2022/04/23 11:36:35;;;;;;;;;;;;;;;14.41;47.98;96794.34;4967198;28;19938;-58
2022/04/23 11:39:30;;;;;;;;;;;;;;;14.47;47.62;96792.94;4959896;28;20033;-58
2022/04/23 11:42:00;;;;;;;;;;;;;;;14.35;47.51;96788.41;4964734;28;19952;-58
2022/04/23 11:47:09;;;;;;;;;;;;;;;14.11;48.57;96786.00;4960579;28;19934;-58
2022/04/23 11:49:38;;;;;;;;;;;;;;;14.29;47.90;96783.59;4957715;28;19949;-57
2022/04/23 11:52:08;;;;;;;;;;;;;;;14.34;48.28;96772.38;4963920;28;19941;-58
2022/04/23 11:54:36;;;;;;;;;;;;;;;14.37;47.29;96777.91;4961179;28;20345;-57
2022/04/23 11:57:04;;;;;;;;;;;;;;;14.32;47.61;96775.47;4959989;28;19938;-58
2022/04/23 11:59:35;;;;;;;;;;;;;;;14.52;47.68;96764.50;4947739;28;19946;-58
2022/04/23 12:02:03;;;;;;;;;;;;;;;14.62;46.86;96769.38;4951692;28;20413;-58
2022/04/23 12:04:40;;;;;;;;;;;;;;;14.62;46.99;96764.69;4951262;28;19934;-56
2022/04/23 12:07:10;;;;;;;;;;;;;;;14.48;47.50;96761.72;4951885;28;19927;-59
2022/04/23 12:09:44;;;;;;;;;;;;;;;14.64;46.48;96767.84;4952465;28;20370;-56
2022/04/23 12:12:15;;;;;;;;;;;;;;;14.51;46.81;96776.59;4956382;28;20412;-60
2022/04/23 12:14:44;;;;;;;;;;;;;;;14.63;46.82;96769.00;4961532;28;19938;-58
2022/04/23 12:17:12;;;;;;;;;;;;;;;14.48;47.15;96761.72;4940885;28;20493;-58
2022/04/23 12:19:40;;;;;;;;;;;;;;;14.60;47.55;96761.53;4942551;28;20300;-58
2022/04/23 12:25:27;;;;;;;;;;;;;;;14.48;47.54;96756.25;4957165;28;19953;-58
2022/04/23 12:27:56;;;;;;;;;;;;;;;14.42;47.55;96757.69;4961536;28;19934;-58
2022/04/23 12:42:10;;;;;;;;;;;;;;;14.82;46.89;96740.03;4964393;28;19945;-58
2022/04/23 12:44:41;;;;;;;;;;;;;;;14.65;46.93;96739.38;4959311;28;19985;-60
2022/04/23 12:47:10;;;;;;;;;;;;;;;14.57;47.58;96725.94;4957036;28;19926;-58
2022/04/23 12:49:45;;;;;;;;;;;;;;;14.80;46.33;96728.63;4961661;28;19946;-60
2022/04/23 12:52:15;;;;;;;;;;;;;;;14.77;47.25;96724.72;4966425;28;19945;-59
2022/04/23 12:54:58;;;;;;;;;;;;;;;14.77;46.48;96715.72;4965420;28;19989;-58
2022/04/23 12:57:27;;;;;;;;;;;;;;;14.69;47.33;96723.00;4952373;28;20030;-58
2022/04/23 12:59:55;;;;;;;;;;;;;;;14.73;46.85;96712.94;4964007;28;19930;-60
2022/04/23 13:02:22;;;;;;;;;;;;;;;14.53;47.85;96709.47;4959286;28;19926;-62
2022/04/23 13:04:50;;;;;;;;;;;;;;;14.67;47.96;96715.19;4960606;28;19929;-60
2022/04/23 13:10:04;;;;;;;;;;;;;;;14.38;48.76;96708.47;4940598;28;20017;-61
2022/04/23 13:12:57;;;;;;;;;;;;;;;14.73;47.08;96712.94;4952770;28;19922;-60
2022/04/23 13:15:50;;;;;;;;;;;;;;;14.62;47.29;96706.50;4962615;28;20028;-60
2022/04/23 13:18:19;;;;;;;;;;;;;;;14.53;48.13;96709.47;4954268;28;19983;-61
2022/04/23 13:20:48;;;;;;;;;;;;;;;14.56;47.34;96697.84;4959428;28;19923;-62
2022/04/23 13:23:22;;;;;;;;;;;;;;;14.40;48.92;96699.88;4958053;28;19926;-62
2022/04/23 13:26:39;;;;;;;;;;;;;;;14.87;47.30;96693.22;4962228;28;20016;-59
2022/04/23 13:29:07;;;;;;;;;;;;;;;14.91;46.80;96703.06;4959045;28;20002;-59
2022/04/23 13:31:37;;;;;;;;;;;;;;;15.21;46.28;96699.53;4965286;28;19930;-60
2022/04/23 13:34:06;;;;;;;;;;;;;;;15.28;45.96;96693.38;4954940;28;19963;-61
2022/04/23 13:36:34;;;;;;;;;;;;;;;15.14;46.42;96689.31;4948957;28;20347;-60
2022/04/23 13:39:28;;;;;;;;;;;;;;;14.74;47.25;96684.44;4949110;28;20315;-63
2022/04/23 13:41:56;;;;;;;;;;;;;;;14.65;47.49;96681.19;4961500;28;19926;-62
2022/04/23 13:44:23;;;;;;;;;;;;;;;14.70;48.25;96680.06;4951773;28;20004;-60
2022/04/23 13:46:51;;;;;;;;;;;;;;;14.77;47.46;96680.19;4963555;28;19973;-59
2022/04/23 13:49:20;;;;;;;;;;;;;;;14.96;47.05;96671.84;4939760;28;20037;-64
2022/04/23 13:51:48;;;;;;;;;;;;;;;15.10;46.78;96677.50;4951009;28;20001;-59
2022/04/23 13:54:41;;;;;;;;;;;;;;;15.08;46.15;96674.38;4948520;28;20267;-59
2022/04/23 13:57:09;;;;;;;;;;;;;;;15.16;46.21;96669.78;4957662;28;19930;-59
2022/04/23 13:59:38;;;;;;;;;;;;;;;15.13;46.18;96665.84;4955774;28;19922;-59
2022/04/23 14:10:23;;;;;;;;;;;;;;;15.57;45.33;96656.19;4960913;28;20282;-59
2022/04/23 14:12:51;;;;;;;;;;;;;;;15.58;45.55;96647.59;4961252;28;19922;-59
2022/04/23 14:15:19;;;;;;;;;;;;;;;15.65;45.05;96642.22;4959023;28;19969;-59